Startpagina
METAR-TAF:

METAR-TAF

Vliegvelden :

Luchthaven Athene

Athene, Griekenland

breedte: 37-56N, lengte: 023-56E, hoogte: 94 m

Actueel weer

Dit bericht is 19 minuten geleden gemaakt, om 11:50 UTC
Wind 9 kt uit het westzuidwesten
Temperatuur 20°C
Vochtigheid 49%
Druk 1014 hPa
Zicht 10 km of meer
Weinig wolken op 3000 ft

METAR: LGAV 221150Z 24009KT 9999 FEW030 20/09 Q1014 NOSIG

Tijdstip: 14:09 (12:09 UTC)

Verwachting

Dit bericht is 1 uur en het 9 minuten geleden gemaakt, om 11:00 UTC
Verwachting geldig van 22 om 12 UTC tot 23 om 12 UTC
Wind 10 kt uit het zuidwesten
Zicht 10 km of meer
Weinig wolken op 2000 ft
Verspreide wolken op 7000 ft
Wijzigt naar
van 22 om 13 UTC tot 22 om 15 UTC
Wind 5 kt uit variabele richting

TAF: LGAV 221100Z 2212/2312 23010KT 9999 FEW020 SCT070 BECMG 2213/2215 VRB05KT

Waarnemingen en weersverwachtingen van meer dan 4000 vliegvelden (METAR en TAF).

De beschikbare stations zijn de gele en rode punten op de kaart.

Ga met uw muis naar het station om de naam te zien.

Klik dan om waarnemingen en weersverwachtingen te zien.

kaart wijzigen: klik op de groene knoppen met een zwart kruis om in te zoomen, op de groene knop met een streepje om uit te zoomen of op de groene pijlen voor aangrenzende kaarten.


METAR-TAF: